Time;durP1;ratioP1;P1;durP2;ratioP2;P2;SDS_P1;SDS_P2;PMS_P1;PMS_P2;Temp;Humidity;BMP_temperature;BMP_pressure;BME280_temperature;BME280_humidity;BME280_pressure;Samples;Min_cycle;Max_cycle;Signal;HPM_P1;HPM_P2
2023/05/26 00:02:01;;;;;;;18.35;4.65;;;;;;;;;;6275270;22;20522;-81
2023/05/26 00:04:27;;;;;;;19.98;5.35;;;;;;;;;;6275081;22;20012;-80
2023/05/26 00:06:54;;;;;;;22.05;5.25;;;;;;;;;;6275037;22;20027;-80
2023/05/26 00:09:20;;;;;;;15.73;5.18;;;9.00;99.90;;;;;;6249645;22;20513;-80
2023/05/26 00:11:46;;;;;;;26.80;5.95;;;;;;;;;;6249498;22;20015;-80
2023/05/26 00:14:14;;;;;;;18.02;4.97;;;;;;;;;;6249735;22;20015;-81
2023/05/26 00:16:40;;;;;;;19.75;4.85;;;;;;;;;;6274874;22;20019;-81
2023/05/26 00:19:07;;;;;;;20.42;4.50;;;;;;;;;;6249343;22;20019;-81
2023/05/26 00:21:34;;;;;;;15.93;4.60;;;;;;;;;;6275101;22;20094;-82
2023/05/26 00:24:01;;;;;;;21.17;5.35;;;;;;;;;;6249402;22;20092;-81
2023/05/26 00:26:27;;;;;;;27.90;5.50;;;;;;;;;;6275138;22;20327;-82
2023/05/26 00:28:53;;;;;;;20.65;4.95;;;;;;;;;;6275303;22;20015;-82
2023/05/26 00:31:19;;;;;;;22.95;6.38;;;;;;;;;;6275283;22;20016;-82
2023/05/26 00:33:45;;;;;;;38.72;6.60;;;;;;;;;;6249596;22;20020;-82
2023/05/26 00:36:11;;;;;;;24.38;5.85;;;;;;;;;;6274436;22;20345;-82
2023/05/26 00:38:39;;;;;;;24.40;5.72;;;;;;;;;;6275051;22;20341;-81
2023/05/26 00:41:06;;;;;;;23.38;5.82;;;;;;;;;;6224661;22;20016;-82
2023/05/26 00:43:32;;;;;;;21.02;5.20;;;;;;;;;;6249401;22;20089;-82
2023/05/26 00:45:58;;;;;;;27.98;5.47;;;;;;;;;;6249414;22;20020;-81
2023/05/26 00:48:24;;;;;;;18.17;4.80;;;;;;;;;;6249809;22;20020;-81
2023/05/26 00:50:50;;;;;;;20.83;4.75;;;;;;;;;;6249910;22;20019;-81
2023/05/26 00:53:17;;;;;;;17.25;4.60;;;8.90;99.90;;;;;;6275200;22;20023;-81
2023/05/26 00:55:44;;;;;;;24.50;5.40;;;8.80;99.90;;;;;;6249382;22;20019;-80
2023/05/26 00:58:10;;;;;;;18.88;6.18;;;;;;;;;;6274689;22;20011;-80
2023/05/26 01:00:36;;;;;;;21.63;6.05;;;;;;;;;;6274851;22;20352;-80
2023/05/26 01:03:05;;;;;;;27.08;6.95;;;8.60;99.90;;;;;;6249347;22;20483;-80
2023/05/26 01:05:31;;;;;;;27.88;5.38;;;;;;;;;;6249217;22;20392;-80
2023/05/26 01:07:57;;;;;;;25.02;6.30;;;;;;;;;;6276595;22;20396;-81
2023/05/26 01:10:23;;;;;;;22.02;5.45;;;8.70;99.90;;;;;;6251398;22;20445;-81
2023/05/26 01:12:52;;;;;;;41.88;6.03;;;;;;;;;;6251378;22;20457;-80
2023/05/26 01:15:34;;;;;;;16.08;4.97;;;;;;;;;;6276828;22;20397;-80
2023/05/26 01:18:16;;;;;;;21.05;5.15;;;8.70;99.90;;;;;;6277495;22;20344;-80
2023/05/26 01:21:01;;;;;;;17.10;4.43;;;8.60;99.90;;;;;;6226112;22;20023;-80
2023/05/26 01:23:39;;;;;;;21.70;5.03;;;;;;;;;;6251363;22;20047;-80
2023/05/26 01:26:45;;;;;;;23.30;6.15;;;8.60;99.90;;;;;;6276446;22;20016;-81
2023/05/26 01:29:21;;;;;;;19.75;5.22;;;;;;;;;;6230299;22;20380;-81
2023/05/26 01:31:47;;;;;;;17.75;4.55;;;;;;;;;;6276460;22;20022;-80
2023/05/26 01:34:13;;;;;;;20.73;6.28;;;;;;;;;;6276350;22;20020;-81
2023/05/26 01:36:39;;;;;;;23.48;5.85;;;;;;;;;;6276277;22;20026;-81
2023/05/26 01:39:07;;;;;;;22.23;5.30;;;8.70;99.90;;;;;;6276426;22;20011;-81
2023/05/26 01:41:57;;;;;;;21.27;6.10;;;8.60;99.90;;;;;;6251504;22;20445;-81
2023/05/26 01:44:49;;;;;;;22.30;5.38;;;8.60;99.90;;;;;;6250666;22;20086;-80
2023/05/26 01:47:15;;;;;;;24.90;5.55;;;;;;;;;;6263523;22;20020;-81
2023/05/26 01:49:45;;;;;;;15.75;4.85;;;8.50;99.90;;;;;;6276470;22;20453;-80
2023/05/26 01:52:12;;;;;;;18.52;4.53;;;;;;;;;;6276232;22;20015;-82
2023/05/26 01:54:58;;;;;;;18.50;5.03;;;;;;;;;;6278072;22;20015;-82
2023/05/26 01:57:25;;;;;;;25.52;6.53;;;;;;;;;;6250645;22;20077;-82
2023/05/26 01:59:55;;;;;;;21.95;4.72;;;;;;;;;;6276199;22;20015;-83
2023/05/26 02:02:21;;;;;;;22.23;5.80;;;;;;;;;;6276048;22;20519;-82
2023/05/26 02:04:47;;;;;;;26.23;5.38;;;;;;;;;;6277807;22;20095;-82
2023/05/26 02:07:14;;;;;;;21.67;4.55;;;;;;;;;;6250564;22;20020;-82
2023/05/26 02:09:41;;;;;;;25.58;6.13;;;;;;;;;;6275998;22;20475;-82
2023/05/26 02:12:07;;;;;;;15.07;5.82;;;;;;;;;;6250948;22;20027;-83
2023/05/26 02:14:33;;;;;;;20.73;5.30;;;;;;;;;;6276308;22;20026;-83
2023/05/26 02:16:59;;;;;;;16.42;5.60;;;;;;;;;;6250349;22;20061;-82
2023/05/26 02:19:26;;;;;;;16.80;4.70;;;;;;;;;;6250625;22;20069;-81
2023/05/26 02:21:52;;;;;;;22.10;5.40;;;;;;;;;;6250313;22;20051;-82
2023/05/26 02:24:18;;;;;;;24.90;5.00;;;;;;;;;;6276593;22;20333;-82
2023/05/26 02:26:44;;;;;;;18.00;5.35;;;;;;;;;;6276140;22;20034;-83
2023/05/26 02:29:11;;;;;;;20.85;6.95;;;;;;;;;;6278164;22;20016;-82
2023/05/26 02:31:39;;;;;;;15.82;5.22;;;;;;;;;;6276435;22;20019;-82
2023/05/26 02:34:05;;;;;;;14.43;5.13;;;;;;;;;;6277973;22;20012;-80
2023/05/26 02:36:31;;;;;;;24.17;5.78;;;8.40;99.90;;;;;;6276007;22;20066;-80
2023/05/26 02:38:58;;;;;;;13.88;5.32;;;;;;;;;;6276049;22;20027;-80
2023/05/26 02:41:25;;;;;;;21.67;4.63;;;;;;;;;;6277906;22;20020;-81
2023/05/26 02:43:51;;;;;;;18.52;5.75;;;;;;;;;;6275614;22;20019;-81
2023/05/26 02:46:17;;;;;;;24.92;5.50;;;;;;;;;;6277134;22;20457;-80
2023/05/26 02:48:43;;;;;;;18.75;4.68;;;;;;;;;;6250205;22;20027;-81
2023/05/26 02:51:10;;;;;;;25.13;5.90;;;;;;;;;;6275775;22;20018;-80
2023/05/26 02:53:36;;;;;;;23.42;5.45;;;;;;;;;;6277049;22;20522;-80
2023/05/26 02:56:03;;;;;;;20.55;5.45;;;;;;;;;;6250316;22;20111;-81
2023/05/26 02:58:30;;;;;;;25.33;6.35;;;;;;;;;;6275871;22;20094;-81
2023/05/26 03:00:56;;;;;;;15.20;4.90;;;;;;;;;;6275686;22;20093;-80
2023/05/26 03:03:22;;;;;;;26.33;5.28;;;;;;;;;;6275597;22;20016;-80
2023/05/26 03:05:49;;;;;;;23.73;5.85;;;;;;;;;;6275631;22;20026;-81
2023/05/26 03:08:15;;;;;;;23.40;5.13;;;;;;;;;;6250164;22;20023;-81
2023/05/26 03:10:43;;;;;;;20.27;6.20;;;;;;;;;;6250614;22;20460;-81
2023/05/26 03:13:10;;;;;;;16.83;4.70;;;;;;;;;;6275616;22;20019;-81
2023/05/26 03:15:36;;;;;;;20.63;4.93;;;;;;;;;;6249990;22;20023;-81
2023/05/26 03:18:03;;;;;;;19.60;4.80;;;8.30;99.90;;;;;;6249837;22;20322;-81
2023/05/26 03:20:29;;;;;;;28.08;5.70;;;;;;;;;;6275387;22;20016;-80
2023/05/26 03:22:55;;;;;;;21.42;4.88;;;;;;;;;;6275278;22;20062;-81
2023/05/26 03:25:22;;;;;;;20.27;6.15;;;;;;;;;;6224702;22;20018;-81
2023/05/26 03:27:48;;;;;;;17.45;5.40;;;;;;;;;;6275267;22;20028;-81
2023/05/26 03:30:14;;;;;;;27.55;6.35;;;;;;;;;;6249667;22;20007;-81
2023/05/26 03:32:40;;;;;;;20.60;5.00;;;;;;;;;;6249992;22;20457;-81
2023/05/26 03:35:06;;;;;;;17.42;5.00;;;;;;;;;;6249739;22;20344;-81
2023/05/26 03:37:32;;;;;;;18.85;6.53;;;;;;;;;;6224783;22;20448;-81
2023/05/26 03:39:58;;;;;;;20.98;6.07;;;;;;;;;;6224706;22;20061;-80
2023/05/26 03:42:25;;;;;;;20.95;5.80;;;;;;;;;;6224540;22;20539;-81
2023/05/26 03:44:51;;;;;;;27.10;5.85;;;;;;;;;;6224306;22;20091;-80
2023/05/26 03:47:17;;;;;;;21.90;5.45;;;;;;;;;;6224607;22;20026;-81
2023/05/26 03:49:43;;;;;;;22.15;4.85;;;;;;;;;;6224595;22;20448;-81
2023/05/26 03:52:09;;;;;;;30.35;5.60;;;;;;;;;;6275172;22;20016;-81
2023/05/26 03:54:35;;;;;;;14.00;4.05;;;;;;;;;;6250002;22;20020;-81
2023/05/26 03:57:02;;;;;;;15.85;4.78;;;;;;;;;;6249729;22;20020;-81
2023/05/26 03:59:28;;;;;;;22.38;5.82;;;;;;;;;;6249768;22;20015;-81
2023/05/26 04:01:55;;;;;;;23.13;5.75;;;;;;;;;;6249709;22;20016;-81
2023/05/26 04:04:21;;;;;;;11.82;4.65;;;;;;;;;;6275087;22;20075;-81
2023/05/26 04:06:47;;;;;;;17.45;5.45;;;;;;;;;;6249659;22;20015;-81
2023/05/26 04:09:13;;;;;;;29.67;5.72;;;;;;;;;;6275178;22;20019;-81
2023/05/26 04:11:39;;;;;;;30.80;5.85;;;;;;;;;;6249582;22;20015;-81
2023/05/26 04:14:06;;;;;;;23.48;4.63;;;;;;;;;;6224328;22;20015;-82
2023/05/26 04:16:33;;;;;;;25.30;6.78;;;;;;;;;;6224474;22;20361;-81
2023/05/26 04:18:59;;;;;;;23.70;6.53;;;;;;;;;;6275294;22;20015;-81
2023/05/26 04:21:25;;;;;;;14.20;4.47;;;;;;;;;;6249450;22;20455;-81
2023/05/26 04:23:52;;;;;;;23.45;4.30;;;;;;;;;;6274961;22;20035;-82
2023/05/26 04:26:18;;;;;;;15.77;4.63;;;;;;;;;;6274902;22;20070;-83
2023/05/26 04:28:45;;;;;;;14.48;4.60;;;;;;;;;;6275201;22;20015;-81
2023/05/26 04:31:16;;;;;;;16.48;5.18;;;8.20;99.90;;;;;;6275253;22;20476;-81
2023/05/26 04:33:44;;;;;;;28.50;5.47;;;8.10;99.90;;;;;;6224562;22;20018;-82
2023/05/26 04:36:10;;;;;;;11.27;4.18;;;;;;;;;;6224403;22;20076;-82
2023/05/26 04:38:37;;;;;;;19.70;4.75;;;;;;;;;;6249281;22;20055;-82
2023/05/26 04:41:07;;;;;;;23.55;5.88;;;;;;;;;;6275124;22;20015;-82
2023/05/26 04:43:36;;;;;;;22.58;6.70;;;;;;;;;;6277339;22;20015;-82
2023/05/26 04:46:02;;;;;;;23.35;4.88;;;;;;;;;;6276732;22;20024;-83
2023/05/26 04:48:29;;;;;;;17.92;5.32;;;;;;;;;;6251574;22;20035;-82
2023/05/26 04:50:55;;;;;;;17.17;5.35;;;;;;;;;;6276262;22;20019;-82
2023/05/26 04:53:21;;;;;;;14.95;4.40;;;;;;;;;;6277056;22;20447;-82
2023/05/26 04:55:47;;;;;;;19.83;4.97;;;;;;;;;;6277215;22;20023;-83
2023/05/26 04:58:14;;;;;;;19.48;4.78;;;;;;;;;;6251755;22;20065;-83
2023/05/26 05:00:40;;;;;;;22.30;4.95;;;;;;;;;;6251498;22;20054;-82
2023/05/26 05:03:06;;;;;;;18.35;4.90;;;;;;;;;;6277120;22;20058;-83
2023/05/26 05:05:35;;;;;;;17.35;5.13;;;;;;;;;;6251617;22;20022;-82
2023/05/26 05:08:01;;;;;;;16.10;4.95;;;;;;;;;;6277077;22;20019;-83
2023/05/26 05:10:27;;;;;;;21.42;5.53;;;;;;;;;;6251323;22;20023;-82
2023/05/26 05:12:53;;;;;;;23.33;4.75;;;;;;;;;;6276859;22;20524;-82
2023/05/26 05:15:20;;;;;;;21.08;6.13;;;;;;;;;;6276770;22;20023;-82
2023/05/26 05:17:46;;;;;;;21.60;5.32;;;;;;;;;;6251222;22;20094;-82
2023/05/26 05:20:12;;;;;;;18.25;6.13;;;;;;;;;;6278833;22;20034;-83
2023/05/26 05:22:38;;;;;;;19.42;5.63;;;;;;;;;;6276802;22;20016;-83
2023/05/26 05:25:05;;;;;;;17.10;4.70;;;;;;;;;;6276460;22;20495;-83
2023/05/26 05:27:31;;;;;;;23.38;5.55;;;;;;;;;;6276453;22;20016;-82
2023/05/26 05:29:57;;;;;;;12.68;4.70;;;;;;;;;;6276457;22;20024;-83
2023/05/26 05:32:23;;;;;;;22.17;6.30;;;;;;;;;;6225844;22;20096;-84
2023/05/26 05:34:49;;;;;;;12.35;4.13;;;;;;;;;;6250911;22;20065;-83
2023/05/26 05:37:15;;;;;;;29.20;6.40;;;;;;;;;;6251381;22;20020;-83
2023/05/26 05:39:41;;;;;;;20.98;6.22;;;;;;;;;;6251400;22;20016;-82
2023/05/26 05:42:07;;;;;;;19.65;4.72;;;;;;;;;;6250762;22;20169;-83
2023/05/26 05:44:33;;;;;;;18.33;5.40;;;;;;;;;;6276190;22;20015;-83
2023/05/26 05:47:05;;;;;;;16.17;4.95;;;;;;;;;;6252017;22;20022;-83
2023/05/26 05:49:31;;;;;;;26.23;4.03;;;;;;;;;;6250950;22;20094;-83
2023/05/26 05:51:57;;;;;;;20.40;4.40;;;;;;;;;;6250685;22;20018;-81
2023/05/26 05:54:23;;;;;;;22.42;4.88;;;;;;;;;;6251245;22;20062;-81
2023/05/26 05:56:49;;;;;;;12.18;4.30;;;;;;;;;;6250727;22;20019;-81
2023/05/26 05:59:16;;;;;;;33.08;5.45;;;;;;;;;;6276413;22;20015;-81
2023/05/26 06:01:42;;;;;;;28.35;5.30;;;;;;;;;;6251270;22;20425;-81
2023/05/26 06:04:08;;;;;;;17.55;5.93;;;;;;;;;;6251608;22;20065;-81
2023/05/26 06:06:38;;;;;;;11.45;4.43;;;;;;;;;;6225713;22;20019;-81
2023/05/26 06:09:04;;;;;;;9.63;4.63;;;;;;;;;;6276550;22;20041;-82
2023/05/26 06:11:30;;;;;;;20.80;5.05;;;;;;;;;;6251376;22;20069;-82
2023/05/26 06:13:58;;;;;;;13.77;5.75;;;;;;;;;;6250994;22;20020;-82
2023/05/26 06:16:24;;;;;;;18.55;5.22;;;;;;;;;;6226250;22;20016;-82
2023/05/26 06:18:53;;;;;;;21.15;4.35;;;;;;;;;;6252222;22;20011;-82
2023/05/26 06:21:19;;;;;;;21.45;5.50;;;;;;;;;;6250850;22;20058;-82
2023/05/26 06:23:45;;;;;;;15.68;4.32;;;;;;;;;;6250208;22;20500;-82
2023/05/26 06:26:11;;;;;;;20.42;5.47;;;;;;;;;;6250410;22;20353;-82
2023/05/26 06:28:37;;;;;;;16.85;4.53;;;;;;;;;;6225497;22;20383;-82
2023/05/26 06:31:03;;;;;;;15.13;4.07;;;;;;;;;;6250543;22;20023;-82
2023/05/26 06:33:29;;;;;;;14.57;4.35;;;;;;;;;;6250462;22;20019;-82
2023/05/26 06:35:55;;;;;;;19.27;4.10;;;;;;;;;;6250242;22;20016;-81
2023/05/26 06:38:22;;;;;;;26.90;4.57;;;;;;;;;;6250583;22;20399;-82
2023/05/26 06:40:48;;;;;;;19.67;4.00;;;;;;;;;;6225322;22;20379;-82
2023/05/26 06:43:14;;;;;;;21.55;4.15;;;;;;;;;;6251952;22;20389;-81
2023/05/26 06:45:40;;;;;;;14.73;3.97;;;;;;;;;;6250283;22;20079;-81
2023/05/26 06:48:06;;;;;;;16.55;4.63;;;;;;;;;;6275710;22;20444;-81
2023/05/26 06:50:32;;;;;;;13.35;3.55;;;;;;;;;;6275856;22;20023;-82
2023/05/26 06:52:58;;;;;;;20.75;5.20;;;;;;;;;;6250343;22;20012;-82
2023/05/26 06:55:24;;;;;;;20.95;3.88;;;;;;;;;;6275733;22;20039;-82
2023/05/26 06:57:50;;;;;;;11.45;3.88;;;;;;;;;;6275645;22;20020;-82
2023/05/26 07:00:16;;;;;;;11.25;3.35;;;;;;;;;;6250140;22;20077;-82
2023/05/26 07:02:42;;;;;;;11.25;4.82;;;;;;;;;;6275594;22;20023;-82
2023/05/26 07:05:08;;;;;;;25.90;4.00;;;;;;;;;;6275154;22;20023;-82
2023/05/26 07:07:38;;;;;;;18.48;4.47;;;;;;;;;;6275693;22;20019;-82
2023/05/26 07:10:04;;;;;;;30.92;4.95;;;;;;;;;;6250831;22;20062;-81
2023/05/26 07:12:30;;;;;;;11.15;3.95;;;;;;;;;;6249990;22;20027;-82
2023/05/26 07:15:02;;;;;;;15.27;3.42;;;;;;;;;;6226016;22;20027;-82
2023/05/26 07:17:29;;;;;;;19.30;4.45;;;;;;;;;;6250671;22;20016;-80
2023/05/26 07:19:57;;;;;;;18.83;3.90;;;;;;;;;;6250603;22;20016;-82
2023/05/26 07:22:23;;;;;;;11.20;4.63;;;;;;;;;;6224618;22;20023;-82
2023/05/26 07:24:49;;;;;;;16.88;4.90;;;12.30;99.90;;;;;;6224705;22;20062;-82
2023/05/26 07:27:15;;;;;;;12.98;3.92;;;;;;;;;;6224466;22;20019;-82
2023/05/26 07:29:41;;;;;;;17.45;3.65;;;;;;;;;;6249802;22;20016;-82
2023/05/26 07:32:07;;;;;;;11.63;3.45;;;;;;;;;;6249790;22;20055;-83
2023/05/26 07:34:33;;;;;;;18.65;4.30;;;;;;;;;;6249844;22;20022;-83
2023/05/26 07:36:59;;;;;;;13.02;3.60;;;;;;;;;;6224644;22;20027;-83
2023/05/26 07:39:25;;;;;;;16.40;3.88;;;;;;;;;;6249768;22;20023;-83
2023/05/26 07:41:52;;;;;;;12.93;3.40;;;12.50;99.90;;;;;;6249788;22;20016;-82
2023/05/26 07:44:18;;;;;;;15.43;4.50;;;;;;;;;;6249321;22;20023;-83
2023/05/26 07:46:44;;;;;;;17.35;3.78;;;;;;;;;;6275066;22;20019;-84
2023/05/26 07:49:10;;;;;;;8.23;3.25;;;;;;;;;;6275079;22;20046;-84
2023/05/26 07:51:36;;;;;;;14.32;3.80;;;;;;;;;;6224636;22;20465;-82
2023/05/26 07:54:02;;;;;;;12.25;3.15;;;13.10;99.90;;;;;;6275402;22;20012;-85
2023/05/26 07:56:28;;;;;;;8.32;3.30;;;;;;;;;;6224437;22;20042;-83
2023/05/26 07:58:54;;;;;;;6.40;3.20;;;;;;;;;;6249534;22;20012;-83
2023/05/26 08:01:20;;;;;;;16.15;3.75;;;;;;;;;;6249736;22;20020;-84
2023/05/26 08:03:47;;;;;;;12.23;3.63;;;13.20;99.90;;;;;;6275509;22;20016;-83
2023/05/26 08:06:14;;;;;;;12.30;3.05;;;;;;;;;;6275215;22;20330;-82
2023/05/26 08:08:40;;;;;;;13.68;3.58;;;13.50;99.90;;;;;;6275267;22;20022;-83
2023/05/26 08:11:06;;;;;;;9.85;3.15;;;13.60;99.90;;;;;;6249922;22;20098;-83
2023/05/26 08:13:32;;;;;;;10.15;3.05;;;;;;;;;;6224391;22;20043;-83
2023/05/26 08:15:58;;;;;;;19.45;4.30;;;13.50;99.90;;;;;;6274840;22;20047;-83
2023/05/26 08:18:24;;;;;;;12.35;3.38;;;;;;;;;;6249565;22;20039;-83
2023/05/26 08:20:52;;;;;;;17.23;3.85;;;13.50;99.90;;;;;;6275100;22;20016;-83
2023/05/26 08:23:19;;;;;;;15.77;3.28;;;;;;;;;;6275002;22;20457;-83
2023/05/26 08:25:45;;;;;;;13.38;3.42;;;;;;;;;;6275123;22;20031;-82
2023/05/26 08:28:11;;;;;;;16.48;4.00;;;13.50;99.90;;;;;;6249367;22;20012;-82
2023/05/26 08:30:37;;;;;;;7.82;3.30;;;;;;;;;;6275152;22;20038;-81
2023/05/26 08:33:03;;;;;;;24.23;4.07;;;;;;;;;;6249873;22;20012;-84
2023/05/26 08:35:29;;;;;;;9.75;4.32;;;;;;;;;;6275230;22;20015;-83
2023/05/26 08:37:55;;;;;;;13.57;3.83;;;13.80;99.90;;;;;;6274847;22;20022;-83
2023/05/26 08:40:21;;;;;;;13.38;3.10;;;13.80;99.90;;;;;;6249543;22;20015;-83
2023/05/26 08:42:49;;;;;;;18.92;3.70;;;13.80;99.90;;;;;;6199147;22;20345;-83
2023/05/26 08:45:15;;;;;;;15.07;3.67;;;;;;;;;;6274784;22;20073;-83
2023/05/26 08:47:43;;;;;;;12.52;3.67;;;;;;;;;;6274971;22;20026;-83
2023/05/26 08:50:09;;;;;;;15.18;3.65;;;13.90;99.90;;;;;;6274851;22;20011;-84
2023/05/26 08:52:37;;;;;;;13.07;3.28;;;13.80;99.90;;;;;;6274814;22;20015;-84
2023/05/26 08:55:03;;;;;;;14.43;4.03;;;13.90;99.90;;;;;;6274834;22;20529;-84
2023/05/26 08:57:30;;;;;;;20.52;3.60;;;14.00;99.90;;;;;;6250052;22;20094;-84
2023/05/26 08:59:56;;;;;;;10.63;3.33;;;13.70;99.90;;;;;;6224196;22;20073;-84
2023/05/26 09:02:22;;;;;;;9.60;3.83;;;13.80;99.90;;;;;;6249114;22;20023;-82
2023/05/26 09:04:48;;;;;;;8.80;4.00;;;;;;;;;;6223811;22;20347;-81
2023/05/26 09:07:14;;;;;;;10.43;3.30;;;14.20;99.90;;;;;;6249147;22;20186;-81
2023/05/26 09:09:40;;;;;;;13.52;3.78;;;14.20;99.90;;;;;;6249482;22;20023;-83
2023/05/26 09:12:12;;;;;;;12.07;3.47;;;;;;;;;;6274711;22;20353;-82
2023/05/26 09:14:40;;;;;;;12.82;3.47;;;14.10;99.90;;;;;;6249523;22;20341;-82
2023/05/26 09:17:06;;;;;;;14.57;3.42;;;14.30;99.90;;;;;;6274929;22;20020;-84
2023/05/26 09:19:33;;;;;;;16.73;3.53;;;14.30;99.90;;;;;;6275014;22;20069;-83
2023/05/26 09:22:09;;;;;;;13.98;3.65;;;14.30;99.90;;;;;;6249178;22;20058;-83
2023/05/26 09:24:48;;;;;;;20.83;3.75;;;14.60;99.90;;;;;;6249408;22;20024;-85
2023/05/26 09:27:22;;;;;;;15.27;3.88;;;14.50;99.90;;;;;;6249381;22;20014;-83
2023/05/26 09:29:52;;;;;;;13.25;4.20;;;14.40;99.90;;;;;;6250819;22;20026;-84
2023/05/26 09:32:18;;;;;;;11.55;4.05;;;14.80;99.90;;;;;;6250751;22;20016;-83
2023/05/26 09:34:44;;;;;;;11.38;3.38;;;;;;;;;;6251093;22;20026;-83
2023/05/26 09:37:11;;;;;;;12.45;3.75;;;;;;;;;;6251252;22;20042;-84
2023/05/26 09:39:37;;;;;;;10.88;3.63;;;14.70;99.90;;;;;;6276700;22;20015;-82
2023/05/26 09:42:07;;;;;;;9.77;4.20;;;;;;;;;;6276596;22;20085;-84
2023/05/26 09:44:39;;;;;;;17.25;3.63;;;15.00;99.90;;;;;;6276068;22;20022;-83
2023/05/26 09:47:06;;;;;;;17.45;3.88;;;15.10;99.90;;;;;;6201020;22;20094;-84
2023/05/26 09:49:32;;;;;;;9.23;4.15;;;15.00;99.90;;;;;;6250740;22;20012;-84
2023/05/26 09:51:59;;;;;;;14.15;3.60;;;;;;;;;;6250687;22;20476;-82
2023/05/26 09:54:26;;;;;;;6.25;3.05;;;;;;;;;;6225787;22;20515;-84
2023/05/26 09:56:59;;;;;;;15.98;4.00;;;15.00;99.90;;;;;;6250833;22;20038;-83
2023/05/26 09:59:38;;;;;;;13.10;3.22;;;15.10;99.90;;;;;;6250480;22;20054;-83
2023/05/26 10:02:21;;;;;;;14.90;3.90;;;;;;;;;;6276414;22;20077;-83
2023/05/26 10:04:47;;;;;;;19.35;4.72;;;;;;;;;;6250641;22;20020;-82
2023/05/26 10:07:15;;;;;;;8.73;3.65;;;15.30;99.90;;;;;;6225684;22;20057;-82
2023/05/26 10:09:44;;;;;;;10.73;4.13;;;15.00;99.90;;;;;;6275363;22;20098;-83
2023/05/26 10:12:13;;;;;;;7.95;3.00;;;15.30;99.90;;;;;;6250627;22;20349;-85
2023/05/26 10:14:39;;;;;;;14.63;3.42;;;15.20;99.90;;;;;;6276572;22;20076;-84
2023/05/26 10:17:06;;;;;;;15.88;4.15;;;15.40;99.90;;;;;;6276221;22;20055;-84
2023/05/26 10:19:32;;;;;;;9.23;3.10;;;;;;;;;;6250953;22;20012;-84
2023/05/26 10:22:06;;;;;;;15.77;3.80;;;15.30;99.90;;;;;;6250763;22;20348;-84
2023/05/26 10:24:34;;;;;;;;;;;15.10;99.90;;;;;;6251120;22;20016;-84
2023/05/26 10:27:16;;;;;;;8.43;2.97;;;15.20;99.90;;;;;;6276072;22;19915;-84
2023/05/26 10:29:55;;;;;;;8.75;3.28;;;15.60;99.90;;;;;;6250602;22;20016;-83
2023/05/26 10:32:39;;;;;;;11.60;3.67;;;;;;;;;;6250649;22;20015;-84
2023/05/26 10:35:26;;;;;;;9.02;3.38;;;15.70;99.90;;;;;;6277141;22;20027;-84
2023/05/26 10:38:02;;;;;;;7.00;3.25;;;;;;;;;;6276106;22;20594;-82
2023/05/26 10:40:37;;;;;;;14.88;4.20;;;15.90;99.90;;;;;;6250046;22;20022;-84
2023/05/26 10:43:23;;;;;;;11.45;3.72;;;15.70;99.90;;;;;;6275949;22;20409;-83
2023/05/26 10:45:57;;;;;;;13.88;4.10;;;15.80;99.90;;;;;;6250241;22;20016;-83
2023/05/26 10:48:37;;;;;;;11.98;3.72;;;15.80;99.90;;;;;;6250304;22;20491;-84
2023/05/26 10:51:03;;;;;;;14.63;3.45;;;;;;;;;;6276656;22;20039;-85
2023/05/26 10:53:40;;;;;;;8.77;3.53;;;15.80;99.90;;;;;;6250530;22;20019;-84
2023/05/26 10:56:11;;;;;;;12.30;4.20;;;15.60;99.90;;;;;;6275542;22;20051;-84
2023/05/26 10:58:40;;;;;;;21.83;4.28;;;15.80;99.90;;;;;;6275646;22;20022;-84
2023/05/26 11:01:11;;;;;;;10.82;3.47;;;15.80;99.90;;;;;;6250097;22;20018;-83
2023/05/26 11:03:44;;;;;;;11.23;3.72;;;15.60;99.90;;;;;;6249603;22;20035;-84
2023/05/26 11:06:16;;;;;;;18.25;4.55;;;15.80;99.90;;;;;;6275694;22;20322;-84
2023/05/26 11:08:50;;;;;;;15.98;3.47;;;;;;;;;;6251897;22;20016;-87
2023/05/26 11:11:29;;;;;;;14.30;4.47;;;16.00;99.90;;;;;;6250820;22;20014;-86
2023/05/26 11:14:06;;;;;;;9.43;3.05;;;;;;;;;;6250551;22;20026;-86
2023/05/26 11:16:36;;;;;;;14.85;3.60;;;16.10;99.90;;;;;;6251110;22;20073;-86
2023/05/26 11:19:05;;;;;;;10.38;3.35;;;16.30;99.90;;;;;;6251146;22;20072;-86
2023/05/26 11:21:33;;;;;;;13.55;3.95;;;;;;;;;;6251777;22;20015;-86
2023/05/26 11:24:00;;;;;;;13.65;3.83;;;16.00;99.90;;;;;;6251333;22;20015;-86
2023/05/26 11:26:28;;;;;;;13.25;4.30;;;16.20;99.90;;;;;;6225536;22;20022;-84
2023/05/26 11:28:54;;;;;;;12.20;4.38;;;;;;;;;;6250495;22;20015;-85
2023/05/26 11:31:27;;;;;;;13.45;4.85;;;16.00;99.90;;;;;;6276284;22;20026;-85
2023/05/26 11:33:54;;;;;;;17.65;4.47;;;16.20;99.90;;;;;;6225821;22;20012;-86
2023/05/26 11:36:21;;;;;;;17.05;4.70;;;16.30;99.90;;;;;;6250257;22;20016;-85
2023/05/26 11:38:51;;;;;;;15.68;3.90;;;16.30;99.90;;;;;;6225675;22;20018;-85
2023/05/26 11:41:17;;;;;;;16.33;4.00;;;16.50;99.90;;;;;;6275489;22;20061;-85
2023/05/26 11:43:46;;;;;;;17.40;4.55;;;;;;;;;;6224465;22;20008;-86
2023/05/26 11:46:14;;;;;;;20.52;3.78;;;16.60;99.90;;;;;;6225572;22;20461;-85
2023/05/26 11:48:41;;;;;;;13.77;3.83;;;16.50;99.90;;;;;;6276779;22;20353;-85
2023/05/26 11:51:19;;;;;;;9.75;3.85;;;16.30;99.90;;;;;;6226804;22;20090;-83
2023/05/26 11:53:51;;;;;;;13.07;3.92;;;16.50;99.90;;;;;;6219233;23;20020;-86
2023/05/26 11:56:17;;;;;;;14.95;4.63;;;;;;;;;;6194187;23;20137;-84
2023/05/26 11:58:46;;;;;;;16.08;4.32;;;16.40;99.90;;;;;;6219265;23;20042;-84
2023/05/26 12:01:13;;;;;;;15.82;4.72;;;;;;;;;;6218262;23;20024;-84
2023/05/26 12:03:41;;;;;;;16.58;5.05;;;16.30;99.90;;;;;;6193251;23;20012;-84
2023/05/26 12:06:15;;;;;;;9.13;3.13;;;16.20;99.90;;;;;;6193422;23;20100;-84
2023/05/26 12:08:52;;;;;;;19.35;4.55;;;16.20;99.90;;;;;;6193055;23;20012;-83
2023/05/26 12:11:23;;;;;;;15.73;4.15;;;16.10;99.90;;;;;;6218173;23;20114;-83
2023/05/26 12:13:56;;;;;;;10.35;3.78;;;16.30;99.90;;;;;;6192982;23;20016;-84
2023/05/26 12:16:28;;;;;;;19.80;4.85;;;;;;;;;;6217967;23;20016;-84
2023/05/26 12:18:56;;;;;;;17.63;4.35;;;16.30;99.90;;;;;;6218214;23;20020;-84
2023/05/26 12:21:23;;;;;;;14.57;5.30;;;16.00;99.90;;;;;;6192852;23;20012;-84
2023/05/26 12:23:52;;;;;;;10.15;3.63;;;;;;;;;;6168409;23;20016;-84
2023/05/26 12:26:29;;;;;;;13.38;3.83;;;16.30;99.90;;;;;;6192804;23;20059;-84
2023/05/26 12:29:15;;;;;;;11.30;3.35;;;16.00;99.90;;;;;;6192621;23;20024;-83
2023/05/26 12:31:50;;;;;;;12.55;3.25;;;16.40;99.90;;;;;;6258882;22;20094;-84
2023/05/26 12:34:18;;;;;;;16.67;4.22;;;16.20;99.90;;;;;;6274992;22;20012;-84
2023/05/26 12:36:45;;;;;;;12.52;3.88;;;;;;;;;;6249643;22;20472;-84
2023/05/26 12:39:12;;;;;;;9.43;3.42;;;16.60;99.90;;;;;;6275179;22;20348;-85
2023/05/26 12:41:40;;;;;;;10.90;4.20;;;;;;;;;;6249422;22;20011;-86
2023/05/26 12:44:09;;;;;;;10.95;4.30;;;16.40;99.90;;;;;;6249810;22;20018;-88
2023/05/26 12:46:35;;;;;;;14.15;3.85;;;;;;;;;;6249740;22;20023;-88
2023/05/26 12:49:01;;;;;;;15.30;3.47;;;16.60;99.90;;;;;;6275260;22;20023;-86
2023/05/26 12:51:30;;;;;;;9.13;4.90;;;16.50;99.90;;;;;;6224400;22;20091;-86
2023/05/26 12:53:56;;;;;;;17.15;4.80;;;;;;;;;;6249775;22;20412;-87
2023/05/26 12:56:22;;;;;;;15.00;3.60;;;;;;;;;;6275727;22;20020;-87
2023/05/26 12:58:49;;;;;;;15.65;4.03;;;;;;;;;;6225310;22;20091;-87
2023/05/26 13:01:18;;;;;;;20.45;4.32;;;;;;;;;;6275422;22;20026;-83
2023/05/26 13:03:46;;;;;;;14.07;4.35;;;;;;;;;;6252358;22;20011;-83
2023/05/26 13:06:12;;;;;;;14.82;4.35;;;;;;;;;;6251373;22;20353;-88
2023/05/26 13:08:39;;;;;;;14.13;4.03;;;;;;;;;;6251888;22;20367;-87
2023/05/26 13:11:05;;;;;;;8.27;3.65;;;;;;;;;;6276855;22;20434;-88
2023/05/26 13:13:32;;;;;;;12.70;4.25;;;;;;;;;;6277156;22;20016;-87
2023/05/26 13:15:58;;;;;;;17.70;4.43;;;;;;;;;;6251185;22;20027;-83
2023/05/26 13:18:24;;;;;;;23.25;6.15;;;;;;;;;;6251023;22;20045;-83
2023/05/26 13:20:51;;;;;;;12.13;4.03;;;;;;;;;;6276494;22;20065;-83
2023/05/26 13:23:17;;;;;;;17.35;4.47;;;;;;;;;;6251253;22;20012;-83
2023/05/26 13:25:43;;;;;;;13.05;5.03;;;;;;;;;;6250951;22;20047;-83
2023/05/26 13:28:09;;;;;;;15.07;4.40;;;;;;;;;;6276606;22;20103;-83
2023/05/26 13:30:36;;;;;;;14.27;4.45;;;;;;;;;;6225998;22;20357;-84
2023/05/26 13:33:03;;;;;;;20.40;4.70;;;16.70;99.90;;;;;;6251316;22;20022;-83
2023/05/26 13:35:31;;;;;;;14.68;5.07;;;16.60;99.90;;;;;;6276438;22;20062;-83
2023/05/26 13:37:57;;;;;;;12.73;4.90;;;;;;;;;;6276299;22;20050;-83
2023/05/26 13:40:23;;;;;;;19.80;3.63;;;;;;;;;;6250986;22;20016;-83
2023/05/26 13:42:49;;;;;;;16.98;5.15;;;;;;;;;;6276445;22;20015;-83
2023/05/26 13:45:16;;;;;;;17.48;4.15;;;;;;;;;;6250853;22;20095;-83
2023/05/26 13:47:42;;;;;;;14.68;4.82;;;;;;;;;;6250704;22;20019;-83
2023/05/26 13:50:09;;;;;;;8.90;4.18;;;16.60;99.90;;;;;;6250912;22;20016;-83
2023/05/26 13:52:35;;;;;;;17.08;5.43;;;;;;;;;;6276256;22;20026;-83
2023/05/26 13:55:01;;;;;;;15.90;4.28;;;;;;;;;;6276361;22;20018;-84
2023/05/26 13:57:29;;;;;;;12.70;4.38;;;;;;;;;;6225651;22;20417;-83
2023/05/26 14:00:01;;;;;;;21.30;5.43;;;;;;;;;;6228166;22;20023;-83